createdAt,value
2023-03-03T00:01:48.119Z,74.92
2023-03-03T00:04:16.428Z,75.00
2023-03-03T00:06:46.120Z,75.24
2023-03-03T00:09:14.147Z,75.30
2023-03-03T00:11:45.445Z,75.32
2023-03-03T00:14:29.196Z,75.48
2023-03-03T00:16:57.811Z,75.30
2023-03-03T00:19:26.139Z,75.37
2023-03-03T00:21:54.220Z,75.60
2023-03-03T00:24:25.276Z,75.65
2023-03-03T00:26:56.123Z,75.66
2023-03-03T00:29:27.282Z,75.96
2023-03-03T00:31:55.866Z,75.94
2023-03-03T00:34:26.233Z,75.91
2023-03-03T00:36:57.194Z,75.89
2023-03-03T00:39:36.861Z,76.01
2023-03-03T00:42:15.320Z,76.05
2023-03-03T00:44:53.341Z,76.10
2023-03-03T00:47:38.270Z,76.24
2023-03-03T00:50:07.994Z,76.53
2023-03-03T00:52:39.053Z,76.31
2023-03-03T00:55:08.971Z,76.22
2023-03-03T00:57:41.253Z,76.57
2023-03-03T01:00:11.699Z,76.63
2023-03-03T01:02:40.689Z,76.85
2023-03-03T01:05:09.626Z,77.13
2023-03-03T01:07:37.656Z,77.09
2023-03-03T01:10:06.611Z,76.86
2023-03-03T01:12:37.505Z,76.93
2023-03-03T01:15:10.229Z,76.91
2023-03-03T01:17:40.719Z,77.20
2023-03-03T01:20:10.675Z,77.16
2023-03-03T01:22:38.666Z,77.30
2023-03-03T01:25:07.878Z,77.32
2023-03-03T01:27:36.337Z,77.38
2023-03-03T01:30:06.859Z,77.34
2023-03-03T01:32:35.522Z,77.56
2023-03-03T01:35:05.250Z,77.44
2023-03-03T01:37:36.756Z,77.63
2023-03-03T01:40:06.481Z,77.50
2023-03-03T01:42:35.144Z,77.23
2023-03-03T01:45:53.999Z,77.37
2023-03-03T01:48:34.387Z,77.66
2023-03-03T01:51:03.263Z,77.70
2023-03-03T01:53:41.773Z,77.75
2023-03-03T01:56:10.203Z,77.81
2023-03-03T01:58:46.209Z,77.54
2023-03-03T02:01:17.225Z,77.49
2023-03-03T02:03:45.329Z,77.68
2023-03-03T02:06:18.157Z,77.82
2023-03-03T02:09:02.474Z,77.98
2023-03-03T02:11:32.518Z,78.13
2023-03-03T02:14:00.676Z,78.02
2023-03-03T02:16:29.498Z,77.86
2023-03-03T02:18:58.187Z,77.88
2023-03-03T02:21:29.196Z,77.99
2023-03-03T02:24:13.778Z,78.16
2023-03-03T02:26:42.128Z,78.15
2023-03-03T02:29:11.351Z,77.95
2023-03-03T02:31:40.158Z,77.81
2023-03-03T02:34:08.292Z,77.83
2023-03-03T02:36:38.447Z,77.95
2023-03-03T02:39:33.598Z,77.96
2023-03-03T02:42:19.417Z,77.99
2023-03-03T02:44:55.672Z,77.68
2023-03-03T02:47:25.463Z,77.74
2023-03-03T02:50:01.525Z,77.94
2023-03-03T02:52:29.858Z,78.00
2023-03-03T02:54:58.346Z,78.05
2023-03-03T02:57:27.199Z,78.24
2023-03-03T02:59:55.232Z,78.15
2023-03-03T03:02:23.453Z,78.06
2023-03-03T03:04:51.823Z,78.22
2023-03-03T03:07:30.298Z,78.52
2023-03-03T03:09:58.600Z,78.82
2023-03-03T03:12:27.593Z,78.86
2023-03-03T03:14:55.924Z,78.58
2023-03-03T03:17:24.648Z,78.63
2023-03-03T03:19:53.205Z,78.73
2023-03-03T03:22:21.978Z,78.81
2023-03-03T03:24:50.296Z,78.92
2023-03-03T03:27:19.385Z,78.93
2023-03-03T03:29:51.771Z,78.79
2023-03-03T03:32:20.615Z,78.52
2023-03-03T03:34:49.100Z,78.39
2023-03-03T03:37:22.562Z,78.55
2023-03-03T03:39:58.727Z,78.76
2023-03-03T03:42:30.144Z,78.70
2023-03-03T03:44:59.116Z,78.52
2023-03-03T03:47:28.010Z,78.23
2023-03-03T03:49:58.055Z,78.23
2023-03-03T03:52:27.044Z,78.41
2023-03-03T03:54:55.290Z,78.33
2023-03-03T03:57:26.276Z,78.36
2023-03-03T04:00:15.815Z,78.26
2023-03-03T04:02:46.288Z,78.03
2023-03-03T04:05:15.855Z,77.97
2023-03-03T04:07:44.598Z,77.92
2023-03-03T04:10:12.754Z,77.88
2023-03-03T04:12:42.914Z,78.05
2023-03-03T04:15:16.090Z,78.05
2023-03-03T04:17:46.135Z,77.91
2023-03-03T04:20:15.974Z,77.71
2023-03-03T04:22:45.733Z,77.78
2023-03-03T04:25:16.810Z,77.98
2023-03-03T04:27:52.899Z,78.17
2023-03-03T04:30:23.445Z,78.11
2023-03-03T04:32:53.623Z,78.16
2023-03-03T04:35:23.518Z,77.82
2023-03-03T04:37:51.763Z,77.93
2023-03-03T04:40:21.091Z,77.91
2023-03-03T04:42:50.292Z,77.93
2023-03-03T04:45:23.579Z,78.02
2023-03-03T04:47:52.265Z,78.15
2023-03-03T04:50:25.204Z,78.05
2023-03-03T04:52:55.580Z,77.96
2023-03-03T04:55:24.072Z,78.25
2023-03-03T04:57:53.152Z,78.33
2023-03-03T05:00:22.872Z,78.53
2023-03-03T05:02:50.931Z,78.46
2023-03-03T05:05:21.285Z,78.46
2023-03-03T05:07:49.457Z,78.54
2023-03-03T05:10:18.263Z,78.66
2023-03-03T05:12:46.973Z,78.77
2023-03-03T05:15:19.512Z,78.59
2023-03-03T05:17:48.388Z,78.51
2023-03-03T05:20:21.384Z,78.65
2023-03-03T05:22:51.562Z,78.82
2023-03-03T05:25:19.627Z,79.01
2023-03-03T05:27:47.915Z,79.07
2023-03-03T05:30:16.775Z,79.05
2023-03-03T05:32:47.314Z,79.15
2023-03-03T05:35:15.861Z,79.54
2023-03-03T05:37:47.812Z,79.83
2023-03-03T05:40:16.339Z,79.52
2023-03-03T05:42:45.022Z,79.49
2023-03-03T05:45:13.571Z,79.65
2023-03-03T05:47:42.060Z,79.72
2023-03-03T05:50:12.363Z,79.61
2023-03-03T05:52:40.584Z,79.37
2023-03-03T05:55:11.324Z,79.31
2023-03-03T05:57:39.497Z,79.41
2023-03-03T06:00:11.516Z,79.35
2023-03-03T06:02:44.248Z,79.08
2023-03-03T06:05:12.615Z,79.05
2023-03-03T06:07:45.848Z,79.09
2023-03-03T06:10:14.698Z,78.98
2023-03-03T06:12:46.791Z,78.98
2023-03-03T06:15:15.158Z,78.85
2023-03-03T06:17:43.994Z,78.52
2023-03-03T06:20:12.841Z,78.62
2023-03-03T06:22:41.974Z,78.67
2023-03-03T06:25:14.303Z,78.56
2023-03-03T06:27:42.571Z,78.39
2023-03-03T06:30:13.064Z,78.43
2023-03-03T06:32:42.725Z,78.41
2023-03-03T06:35:11.194Z,78.55
2023-03-03T06:37:42.026Z,78.58
2023-03-03T06:40:11.031Z,78.48
2023-03-03T06:42:39.392Z,78.57
2023-03-03T06:45:08.494Z,78.43
2023-03-03T06:47:37.386Z,78.54
2023-03-03T06:50:07.221Z,78.56
2023-03-03T06:52:35.397Z,78.01
2023-03-03T06:55:11.749Z,78.13
2023-03-03T06:57:46.783Z,78.47
2023-03-03T07:00:30.362Z,78.77
2023-03-03T07:03:06.069Z,78.51
2023-03-03T07:05:36.033Z,78.28
2023-03-03T07:08:09.716Z,78.05
2023-03-03T07:10:45.322Z,77.74
2023-03-03T07:13:32.477Z,77.89
2023-03-03T07:16:02.578Z,77.40
2023-03-03T07:18:41.354Z,76.92
2023-03-03T07:21:17.110Z,76.77
2023-03-03T07:23:46.690Z,76.79
2023-03-03T07:26:16.999Z,76.74
2023-03-03T07:28:58.846Z,76.61
2023-03-03T07:31:31.274Z,76.15
2023-03-03T07:33:59.818Z,75.86
2023-03-03T07:36:29.489Z,75.44
2023-03-03T07:38:59.420Z,75.07
2023-03-03T07:41:27.694Z,74.61
2023-03-03T07:44:05.619Z,74.49
2023-03-03T07:46:50.674Z,74.07
2023-03-03T07:49:46.833Z,73.51
2023-03-03T07:52:24.744Z,73.14
2023-03-03T07:54:53.276Z,72.80
2023-03-03T07:57:38.123Z,73.00
2023-03-03T08:00:29.340Z,72.84
2023-03-03T08:03:01.270Z,72.80
2023-03-03T08:05:39.518Z,72.89
2023-03-03T08:08:27.461Z,72.94
2023-03-03T08:10:58.412Z,72.78
2023-03-03T08:13:37.845Z,72.84
2023-03-03T08:16:09.159Z,72.43
2023-03-03T08:18:48.619Z,72.08
2023-03-03T08:21:18.834Z,71.40
2023-03-03T08:23:49.515Z,71.18
2023-03-03T08:26:22.494Z,70.88
2023-03-03T08:28:55.035Z,70.64
2023-03-03T08:31:39.848Z,69.95
2023-03-03T08:34:09.676Z,69.52
2023-03-03T08:36:42.528Z,69.44
2023-03-03T08:39:11.151Z,69.53
2023-03-03T08:41:44.506Z,69.27
2023-03-03T08:44:13.265Z,69.28
2023-03-03T08:46:42.185Z,69.40
2023-03-03T08:49:15.628Z,69.31
2023-03-03T08:51:44.879Z,69.01
2023-03-03T08:54:13.786Z,69.11
2023-03-03T08:56:45.380Z,69.20
2023-03-03T08:59:15.260Z,69.12
2023-03-03T09:01:45.802Z,69.07
2023-03-03T09:04:15.926Z,68.81
2023-03-03T09:06:48.676Z,68.22
2023-03-03T09:09:18.028Z,67.26
2023-03-03T09:11:58.789Z,67.23
2023-03-03T09:14:29.758Z,67.03
2023-03-03T09:16:57.925Z,66.54
2023-03-03T09:19:31.258Z,65.79
2023-03-03T09:22:03.852Z,65.29
2023-03-03T09:24:33.143Z,65.24
2023-03-03T09:27:03.067Z,64.56
2023-03-03T09:29:37.761Z,64.41
2023-03-03T09:32:35.848Z,64.00
2023-03-03T09:35:35.581Z,63.98
2023-03-03T09:38:31.272Z,63.60
2023-03-03T09:41:31.045Z,62.33
2023-03-03T09:44:18.752Z,61.60
2023-03-03T09:47:11.689Z,61.36
2023-03-03T09:50:02.590Z,61.50
2023-03-03T09:52:42.940Z,61.11
2023-03-03T09:55:30.787Z,60.82
2023-03-03T09:58:17.323Z,59.89
2023-03-03T10:01:17.066Z,59.90
2023-03-03T10:04:16.935Z,59.26
2023-03-03T10:07:12.945Z,58.69
2023-03-03T10:10:02.938Z,58.70
2023-03-03T10:12:39.704Z,58.29
2023-03-03T10:16:00.275Z,56.76
2023-03-03T10:18:53.067Z,55.22
2023-03-03T10:21:37.886Z,53.86
2023-03-03T10:24:29.082Z,53.50
2023-03-03T10:27:33.747Z,53.54
2023-03-03T10:30:33.203Z,52.95
2023-03-03T10:33:13.437Z,52.57
2023-03-03T10:36:07.054Z,51.94
2023-03-03T10:38:45.419Z,52.51
2023-03-03T10:41:36.116Z,52.58
2023-03-03T10:44:35.388Z,53.22
2023-03-03T10:47:22.373Z,53.37
2023-03-03T10:50:17.562Z,54.03
2023-03-03T10:53:04.674Z,54.00
2023-03-03T10:55:41.486Z,54.20
2023-03-03T10:58:22.382Z,54.52
2023-03-03T11:00:58.325Z,54.71
2023-03-03T11:04:00.448Z,54.40
2023-03-03T11:06:40.783Z,54.23
2023-03-03T11:09:38.157Z,54.01
2023-03-03T11:12:34.132Z,54.31
2023-03-03T11:15:18.539Z,54.36
2023-03-03T11:18:26.480Z,54.02
2023-03-03T11:21:11.100Z,54.38
2023-03-03T11:24:02.268Z,53.92
2023-03-03T11:27:01.330Z,53.10
2023-03-03T11:29:57.001Z,52.76
2023-03-03T11:32:48.064Z,52.50
2023-03-03T11:35:35.914Z,51.65
2023-03-03T11:38:12.024Z,51.12
2023-03-03T11:40:57.947Z,50.03
2023-03-03T11:43:36.729Z,50.57
2023-03-03T11:46:25.255Z,51.04
2023-03-03T11:52:10.303Z,51.68
2023-03-03T11:55:04.774Z,51.22
2023-03-03T11:57:35.236Z,51.07
2023-03-03T12:00:20.883Z,51.46
2023-03-03T12:03:13.069Z,51.11
2023-03-03T12:05:53.555Z,51.43
2023-03-03T12:08:55.640Z,51.82
2023-03-03T12:11:28.633Z,52.19
2023-03-03T12:14:29.018Z,52.50
2023-03-03T12:17:03.537Z,52.52
2023-03-03T12:19:48.060Z,52.45
2023-03-03T12:22:25.355Z,52.65
2023-03-03T12:24:56.470Z,52.83
2023-03-03T12:27:34.808Z,53.07
2023-03-03T12:30:13.336Z,53.45
2023-03-03T12:33:07.859Z,53.79
2023-03-03T12:35:50.942Z,54.11
2023-03-03T12:38:48.654Z,54.20
2023-03-03T12:41:34.678Z,54.54
2023-03-03T12:44:14.257Z,54.54
2023-03-03T12:46:58.072Z,54.76
2023-03-03T12:49:57.743Z,54.87
2023-03-03T12:52:53.799Z,55.31
2023-03-03T12:55:48.053Z,55.29
2023-03-03T12:58:20.468Z,55.66
2023-03-03T13:00:58.575Z,55.82
2023-03-03T13:04:05.519Z,55.68
2023-03-03T13:06:53.254Z,55.89
2023-03-03T13:09:31.417Z,56.28
2023-03-03T13:12:18.856Z,56.44
2023-03-03T13:14:57.589Z,56.31
2023-03-03T13:17:36.885Z,56.48
2023-03-03T13:20:25.691Z,56.53
2023-03-03T13:23:03.099Z,56.53
2023-03-03T13:25:50.829Z,56.56
2023-03-03T13:28:53.980Z,56.72
2023-03-03T13:31:46.233Z,56.99
2023-03-03T13:34:26.188Z,56.68
2023-03-03T13:36:58.298Z,57.03
2023-03-03T13:39:29.712Z,57.02
2023-03-03T13:42:01.869Z,57.10
2023-03-03T13:44:42.561Z,57.20
2023-03-03T13:47:46.892Z,57.31
2023-03-03T13:50:22.970Z,57.77
2023-03-03T13:53:09.709Z,58.03
2023-03-03T13:55:47.743Z,58.56
2023-03-03T13:58:25.612Z,58.96
2023-03-03T14:01:12.389Z,59.29
2023-03-03T14:04:05.913Z,59.71
2023-03-03T14:06:34.223Z,60.14
2023-03-03T14:09:46.243Z,60.47
2023-03-03T14:12:34.288Z,61.13
2023-03-03T14:15:22.634Z,61.37
2023-03-03T14:18:12.250Z,61.92
2023-03-03T14:20:50.174Z,61.94
2023-03-03T14:23:46.483Z,62.05
2023-03-03T14:26:15.650Z,62.64
2023-03-03T14:28:48.449Z,62.63
2023-03-03T14:31:21.493Z,62.97
2023-03-03T14:34:16.738Z,63.18
2023-03-03T14:36:45.841Z,63.27
2023-03-03T14:39:39.953Z,63.38
2023-03-03T14:42:30.214Z,63.24
2023-03-03T14:44:59.817Z,63.08
2023-03-03T14:47:29.071Z,63.32
2023-03-03T14:50:03.141Z,63.43
2023-03-03T14:52:33.867Z,63.44
2023-03-03T14:55:30.464Z,63.79
2023-03-03T14:58:08.092Z,63.79
2023-03-03T15:00:40.944Z,63.92
2023-03-03T15:03:23.609Z,63.85
2023-03-03T15:05:53.410Z,63.98
2023-03-03T15:08:31.834Z,63.91
2023-03-03T15:11:24.687Z,63.96
2023-03-03T15:14:10.458Z,63.98
2023-03-03T15:16:40.206Z,64.01
2023-03-03T15:19:40.448Z,64.02
2023-03-03T15:22:13.213Z,64.28
2023-03-03T15:24:49.601Z,64.20
2023-03-03T15:27:33.642Z,64.28
2023-03-03T15:30:10.558Z,64.37
2023-03-03T15:32:47.785Z,64.37
2023-03-03T15:35:37.008Z,64.42
2023-03-03T15:38:49.780Z,64.31
2023-03-03T15:41:44.376Z,64.47
2023-03-03T15:44:48.108Z,64.51
2023-03-03T15:47:16.344Z,64.50
2023-03-03T15:50:00.452Z,64.42
2023-03-03T15:52:43.144Z,64.49
2023-03-03T15:55:46.490Z,64.45
2023-03-03T15:58:36.430Z,64.20
2023-03-03T16:01:31.348Z,64.57
2023-03-03T16:04:19.116Z,64.48
2023-03-03T16:06:56.459Z,64.34
2023-03-03T16:09:47.745Z,64.40
2023-03-03T16:12:22.071Z,64.31
2023-03-03T16:15:18.444Z,64.30
2023-03-03T16:17:56.968Z,64.29
2023-03-03T16:20:43.762Z,64.37
2023-03-03T16:23:25.274Z,64.32
2023-03-03T16:26:31.010Z,64.47
2023-03-03T16:29:21.270Z,64.51
2023-03-03T16:32:03.836Z,64.68
2023-03-03T16:35:15.694Z,64.76
2023-03-03T16:38:13.418Z,64.93
2023-03-03T16:40:56.605Z,65.02
2023-03-03T16:44:06.119Z,65.05
2023-03-03T16:46:41.991Z,65.42
2023-03-03T16:49:27.620Z,65.23
2023-03-03T16:52:10.927Z,65.33
2023-03-03T16:54:54.599Z,65.44
2023-03-03T16:57:45.917Z,65.45
2023-03-03T17:00:27.284Z,65.43
2023-03-03T17:03:26.607Z,65.30
2023-03-03T17:06:21.377Z,65.39
2023-03-03T17:09:17.991Z,65.29
2023-03-03T17:12:00.814Z,65.36
2023-03-03T17:15:09.302Z,65.25
2023-03-03T17:17:48.089Z,65.16
2023-03-03T17:20:48.496Z,65.19
2023-03-03T17:23:41.867Z,65.09
2023-03-03T17:26:35.432Z,65.17
2023-03-03T17:29:39.161Z,65.24
2023-03-03T17:32:30.354Z,65.17
2023-03-03T17:35:01.965Z,65.59
2023-03-03T17:37:38.827Z,65.82
2023-03-03T17:40:32.625Z,66.23
2023-03-03T17:43:01.362Z,66.48
2023-03-03T17:45:31.705Z,66.86
2023-03-03T17:48:16.982Z,67.35
2023-03-03T17:51:05.374Z,67.63
2023-03-03T17:53:42.358Z,67.66
2023-03-03T17:56:14.592Z,67.90
2023-03-03T17:59:09.816Z,68.09
2023-03-03T18:01:45.133Z,68.13
2023-03-03T18:04:38.331Z,68.41
2023-03-03T18:07:34.948Z,68.62
2023-03-03T18:10:25.451Z,68.92
2023-03-03T18:13:06.663Z,69.00
2023-03-03T18:16:11.201Z,69.16
2023-03-03T18:19:02.575Z,69.47
2023-03-03T18:21:47.006Z,69.43
2023-03-03T18:24:27.601Z,69.75
2023-03-03T18:26:56.693Z,69.90
2023-03-03T18:29:28.038Z,70.04
2023-03-03T18:31:59.552Z,70.32
2023-03-03T18:34:37.244Z,70.69
2023-03-03T18:37:30.886Z,71.04
2023-03-03T18:40:02.018Z,71.12
2023-03-03T18:42:46.099Z,71.39
2023-03-03T18:45:20.744Z,71.55
2023-03-03T18:48:01.674Z,72.06
2023-03-03T18:50:38.724Z,72.18
2023-03-03T18:53:16.011Z,72.57
2023-03-03T18:55:45.444Z,72.70
2023-03-03T18:58:47.892Z,73.29
2023-03-03T19:01:55.799Z,73.05
2023-03-03T19:05:30.480Z,73.13
2023-03-03T19:08:53.917Z,73.16
2023-03-03T19:11:45.026Z,73.32
2023-03-03T19:14:29.735Z,73.48
2023-03-03T19:17:21.053Z,73.81
2023-03-03T19:20:16.884Z,73.65
2023-03-03T19:23:11.002Z,73.59
2023-03-03T19:26:29.845Z,73.62
2023-03-03T19:29:15.240Z,73.68
2023-03-03T19:31:46.937Z,73.88
2023-03-03T19:34:46.199Z,73.82
2023-03-03T19:37:33.889Z,73.87
2023-03-03T19:40:36.476Z,73.66
2023-03-03T19:43:14.831Z,73.49
2023-03-03T19:45:53.811Z,73.58
2023-03-03T19:48:26.305Z,73.81
2023-03-03T19:51:11.823Z,74.18
2023-03-03T19:53:52.518Z,73.98
2023-03-03T19:56:34.502Z,73.92
2023-03-03T19:59:21.426Z,74.07
2023-03-03T20:02:22.130Z,74.28
2023-03-03T20:04:56.673Z,74.64
2023-03-03T20:07:27.469Z,74.92
2023-03-03T20:10:09.438Z,74.89
2023-03-03T20:12:53.609Z,74.87
2023-03-03T20:15:38.657Z,74.95
2023-03-03T20:18:52.637Z,75.10
2023-03-03T20:21:32.775Z,75.15
2023-03-03T20:24:49.279Z,74.98
2023-03-03T20:27:46.190Z,74.73
2023-03-03T20:30:44.038Z,74.83
2023-03-03T20:33:25.278Z,74.72
2023-03-03T20:35:56.574Z,74.73
2023-03-03T20:38:49.098Z,74.72
2023-03-03T20:41:24.666Z,74.82
2023-03-03T20:44:00.855Z,74.66
2023-03-03T20:46:36.424Z,74.57
2023-03-03T20:49:33.512Z,74.39
2023-03-03T20:52:22.651Z,74.35
2023-03-03T20:55:09.523Z,74.48
2023-03-03T20:58:02.741Z,74.56
2023-03-03T21:00:39.704Z,74.46
2023-03-03T21:03:14.837Z,74.41
2023-03-03T21:06:16.324Z,74.71
2023-03-03T21:08:53.562Z,75.04
2023-03-03T21:11:23.207Z,75.36
2023-03-03T21:13:56.195Z,75.63
2023-03-03T21:16:24.489Z,75.65
2023-03-03T21:19:07.782Z,75.64
2023-03-03T21:21:38.317Z,75.88
2023-03-03T21:24:07.874Z,75.96
2023-03-03T21:26:57.501Z,75.98
2023-03-03T21:29:31.741Z,75.97
2023-03-03T21:32:05.311Z,75.76
2023-03-03T21:34:39.474Z,75.79
2023-03-03T21:37:12.444Z,75.92
2023-03-03T21:39:43.855Z,76.00
2023-03-03T21:42:14.553Z,76.07
2023-03-03T21:44:49.924Z,76.38
2023-03-03T21:47:20.127Z,76.31
2023-03-03T21:50:00.612Z,76.28
2023-03-03T21:52:29.119Z,76.28
2023-03-03T21:54:57.523Z,76.47
2023-03-03T21:57:27.101Z,76.64
2023-03-03T21:59:58.760Z,76.93
2023-03-03T22:02:33.896Z,76.95
2023-03-03T22:05:03.956Z,76.91
2023-03-03T22:07:32.794Z,76.92
2023-03-03T22:10:03.340Z,77.27
2023-03-03T22:12:32.618Z,77.47
2023-03-03T22:15:04.416Z,77.61
2023-03-03T22:17:32.992Z,77.91
2023-03-03T22:20:01.336Z,77.84
2023-03-03T22:22:29.713Z,77.82
2023-03-03T22:24:58.881Z,77.98
2023-03-03T22:27:33.029Z,78.20
2023-03-03T22:30:01.773Z,78.31
2023-03-03T22:32:30.521Z,78.47
2023-03-03T22:34:59.602Z,78.53
2023-03-03T22:37:27.767Z,78.34
2023-03-03T22:39:55.904Z,78.68
2023-03-03T22:42:25.403Z,78.89
2023-03-03T22:44:57.297Z,79.04
2023-03-03T22:47:26.101Z,79.21
2023-03-03T22:49:59.108Z,79.18
2023-03-03T22:52:27.771Z,79.07
2023-03-03T22:54:59.640Z,79.38
2023-03-03T22:57:30.020Z,79.50
2023-03-03T23:00:00.516Z,79.86
2023-03-03T23:02:37.158Z,79.97
2023-03-03T23:05:08.879Z,79.75
2023-03-03T23:07:41.509Z,79.92
2023-03-03T23:10:12.635Z,79.98
2023-03-03T23:12:44.958Z,80.31
2023-03-03T23:15:16.198Z,80.48
2023-03-03T23:17:47.125Z,80.65
2023-03-03T23:20:23.322Z,80.53
2023-03-03T23:22:51.724Z,80.75
2023-03-03T23:25:20.928Z,80.85
2023-03-03T23:27:49.101Z,81.12
2023-03-03T23:30:18.736Z,81.34
2023-03-03T23:32:48.128Z,81.19
2023-03-03T23:35:16.647Z,81.16
2023-03-03T23:37:45.925Z,81.15
2023-03-03T23:40:16.345Z,81.43
2023-03-03T23:42:45.190Z,81.47
2023-03-03T23:45:14.198Z,81.54
2023-03-03T23:47:43.743Z,81.41
2023-03-03T23:50:13.678Z,81.38
2023-03-03T23:52:42.350Z,81.34
2023-03-03T23:55:11.017Z,81.53
2023-03-03T23:57:39.935Z,81.90
